Nearby METAR Reports

 

KMTN - Baltimore/Martin, Maryland, USA
Distance from station: SSE 8mi, 13km
Updated: Thu, 28-Aug-2014 8:45am EDT
Few Clouds
Few Clouds
 Wind from NW
Wind: NW 7 mph , 11 km/h
Temperature: 73°F , 23°C
Dew Point: 66°F , 19°C
Humidity: 78%
Barometer: 29.98 inHg , 1015.2 hPa
Clouds: Few Clouds
Visibility: 10 miles , 16 km
Cloud details: Few Clouds 7000 ft
2014/08/28 12:45 KMTN 281245Z 32006KT 10SM FEW070 23/19 A2998
KDMH - Baltimore/Dwntwn, Maryland, USA
Distance from station: SW 12mi, 19km
Updated: Thu, 28-Aug-2014 8:54am EDT

 
Temperature: 75°F , 24°C
Dew Point: 61°F , 16°C
Humidity: 61%
Barometer: 29.98 inHg , 1015.2 hPa
2014/08/28 12:54 KDMH 281254Z AUTO 24/16 A2998 RMK AO1 SLP152 T02390156
 
KBWI - Balto/Wash Intl, Maryland, USA
Distance from station: SSW 20mi, 33km
Updated: Thu, 28-Aug-2014 8:54am EDT
Partly cloudy
Partly cloudy
 Wind from NNW
Wind: NNW 10 mph , 17 km/h
Temperature: 75°F , 24°C
Dew Point: 63°F , 17°C
Humidity: 65%
Barometer: 29.98 inHg , 1015.2 hPa
Clouds: Partly cloudy
Visibility: 10 miles , 16 km
Cloud details: Few Clouds 5000 ft
Partly cloudy 14000 ft
Partly cloudy 25000 ft
2014/08/28 12:54 KBWI 281254Z 34009KT 10SM FEW050 SCT140 SCT250 24/17 A2998 RMK AO2 SLP150 T02390167
KDMW - Carroll Cnty, Maryland, USA
Distance from station: WNW 30mi, 48km
Updated: Thu, 28-Aug-2014 8:55am EDT
Partly cloudy
Partly cloudy
 Wind from N
Wind: N 6 mph , 9 km/h
Temperature: 70°F , 21°C
Dew Point: 64°F , 18°C
Humidity: 83%
Barometer: 30.01 inHg , 1016.3 hPa
Clouds: Partly cloudy
Visibility: 10 miles , 16 km
Cloud details: Partly cloudy 2000 ft
2014/08/28 12:55 KDMW 281255Z AUTO 01005KT 10SM SCT020 21/18 A3001 RMK AO2
 
KNAK - Annapolis/Naval, Maryland, USA
Distance from station: S 30mi, 48km
Updated: Thu, 28-Aug-2014 9:03am EDT
Mostly cloudy
Mostly cloudy
 Wind from NNW
Wind: NNW 12 mph , 19 km/h
Temperature: 75°F , 24°C
Dew Point: 66°F , 19°C
Humidity: 74%
Barometer: 29.97 inHg , 1014.9 hPa
Clouds: Mostly cloudy
Visibility: 10 miles , 16 km
Cloud details: Partly cloudy 2300 ft
Mostly cloudy 2800 ft
2014/08/28 13:03 KNAK 281303Z AUTO 33010KT 10SM SCT023 BKN028 24/19 A2997 RMK AO2 T02390194
KW29 - Stevensville, Maryland, USA
Distance from station: SSE 31mi, 50km
Updated: Thu, 28-Aug-2014 8:55am EDT

 Wind from N
Wind: N 13 mph , 20 km/h, Gust: 17 mph , 28 km/h
Temperature: 73°F , 23°C
Dew Point: 63°F , 17°C
Humidity: 69%
Barometer: 29.97 inHg , 1014.9 hPa
Visibility: 10 miles , 16 km
2014/08/28 12:55 KW29 281255Z AUTO 35011G15KT 10SM 23/17 A2997 RMK AO1
 
KCGS - College Park, Maryland, USA
Distance from station: SW 38mi, 61km
Updated: Thu, 28-Aug-2014 8:55am EDT
Partly cloudy
Partly cloudy
 Wind from N
Wind: N 7 mph , 11 km/h
Temperature: 77°F , 25°C
Dew Point: 66°F , 19°C
Humidity: 69%
Barometer: 29.98 inHg , 1015.2 hPa
Clouds: Partly cloudy
Visibility: 10 miles , 16 km
Cloud details: Partly cloudy 3600 ft
2014/08/28 12:55 KCGS 281255Z AUTO 36006KT 10SM SCT036 25/19 A2998 RMK AO1
KGAI - Gaithersburg, Maryland, USA
Distance from station: WSW 40mi, 65km
Updated: Thu, 28-Aug-2014 8:55am EDT
Mostly cloudy
Mostly cloudy
 Wind from calm
Wind: Calm
Temperature: 72°F , 22°C
Dew Point: 63°F , 17°C
Humidity: 73%
Barometer: 30.04 inHg , 1017.3 hPa
Clouds: Mostly cloudy
Visibility: 10 miles , 16 km
Cloud details: Mostly cloudy 2100 ft
2014/08/28 12:55 KGAI 281255Z AUTO 00000KT 10SM BKN021 22/17 A3004 RMK AO1
 
KTHV - York, Pennsylvania, USA
Distance from station: NNW 40mi, 65km
Updated: Thu, 28-Aug-2014 9:02am EDT
Mostly cloudy
Mostly cloudy
 Wind from N
Wind: N 10 mph , 17 km/h
Temperature: 72°F , 22°C
Dew Point: 61°F , 16°C
Humidity: 69%
Barometer: 30.00 inHg , 1015.9 hPa
Clouds: Mostly cloudy
Visibility: 10 miles , 16 km
Cloud details: Mostly cloudy 2400 ft
2014/08/28 13:02 KTHV 281302Z AUTO 01009KT 10SM BKN024 22/16 A3000 RMK AO2 T02170156
KFDK - Frederick, Maryland, USA
Distance from station: W 47mi, 75km
Updated: Thu, 28-Aug-2014 8:45am EDT

 Wind from N
Wind: N 6 mph , 9 km/h
2014/08/28 12:45 KFDK 281245Z 36005KT 10AM FEW025 24/19 A3004
 
KESN - Easton/Newnam, Maryland, USA
Distance from station: SSE 48mi, 78km
Updated: Thu, 28-Aug-2014 8:50am EDT
Few Clouds
Few Clouds
 Wind from N
Wind: N 9 mph , 15 km/h
Temperature: 77°F , 25°C
Dew Point: 66°F , 19°C
Humidity: 69%
Barometer: 29.99 inHg , 1015.6 hPa
Clouds: Few Clouds
Visibility: 10 miles , 16 km
Cloud details: Few Clouds 20000 ft
2014/08/28 12:50 KESN 281250Z 01008KT 10SM FEW200 25/19 A2999
KDCA - Washington/Natl, Washington D.c., USA
Distance from station: SW 49mi, 79km
Updated: Thu, 28-Aug-2014 8:52am EDT
Partly cloudy
Partly cloudy
 Wind from NNW
Wind: NNW 14 mph , 22 km/h
Temperature: 79°F , 26°C
Dew Point: 64°F , 18°C
Humidity: 61%
Barometer: 29.99 inHg , 1015.6 hPa
Clouds: Partly cloudy
Visibility: 10 miles , 16 km
Cloud details: Partly cloudy 3600 ft
Partly cloudy 25000 ft
2014/08/28 12:52 KDCA 281252Z 34012KT 10SM SCT036 SCT250 26/18 A2999 RMK AO2 SLP154 T02610183
 
KLNS - Lancaster, Pennsylvania, USA
Distance from station: N 49mi, 79km
Updated: Thu, 28-Aug-2014 8:53am EDT
Clear
Clear
 Wind from NNW
Wind: NNW 14 mph , 22 km/h
Temperature: 68°F , 20°C
Dew Point: 55°F , 13°C
Humidity: 64%
Barometer: 29.99 inHg , 1015.6 hPa
Clouds: Clear
Visibility: 10 miles , 16 km
2014/08/28 12:53 KLNS 281253Z 34012KT 10SM CLR 20/13 A2999 RMK AO2 SLP154 T02000133
KILG - Wilmington, Delaware, USA
Distance from station: ENE 50mi, 81km
Updated: Thu, 28-Aug-2014 8:51am EDT
Clear
Clear
 Wind from N
Wind: N 13 mph , 20 km/h
Temperature: 73°F , 23°C
Dew Point: 57°F , 14°C
Humidity: 57%
Barometer: 29.97 inHg , 1014.9 hPa
Clouds: Clear
Visibility: 10 miles , 16 km
2014/08/28 12:51 KILG 281251Z AUTO 35011KT 10SM CLR 23/14 A2997 RMK AO2 SLP146 T02280144